createdAt,value
2017-10-28T00:01:02.040Z,22.21
2017-10-28T00:02:11.676Z,22.25
2017-10-28T00:03:20.657Z,22.22
2017-10-28T00:04:29.704Z,22.25
2017-10-28T00:05:39.175Z,22.17
2017-10-28T00:06:48.193Z,22.22
2017-10-28T00:07:57.505Z,22.2
2017-10-28T00:09:06.696Z,22.3
2017-10-28T00:10:16.007Z,22.2
2017-10-28T00:11:25.658Z,22.31
2017-10-28T00:12:34.327Z,22.25
2017-10-28T00:13:43.634Z,22.22
2017-10-28T00:14:52.630Z,22.25
2017-10-28T00:16:02.284Z,22.27
2017-10-28T00:17:11.613Z,22.2
2017-10-28T00:18:21.268Z,22.17
2017-10-28T00:19:30.585Z,22.24
2017-10-28T00:20:40.216Z,22.2
2017-10-28T00:21:48.869Z,22.22
2017-10-28T00:22:57.841Z,22.25
2017-10-28T00:24:06.863Z,22.22
2017-10-28T00:25:16.313Z,22.24
2017-10-28T00:26:24.972Z,22.22
2017-10-28T00:27:33.980Z,22.2
2017-10-28T00:28:43.324Z,22.22
2017-10-28T00:29:52.299Z,22.25
2017-10-28T00:31:01.370Z,22.17
2017-10-28T00:32:10.670Z,22.21
2017-10-28T00:33:19.998Z,22.18
2017-10-28T00:34:28.660Z,22.17
2017-10-28T00:35:37.315Z,22.24
2017-10-28T00:36:45.978Z,22.22
2017-10-28T00:37:54.962Z,22.24
2017-10-28T00:39:04.052Z,22.25
2017-10-28T00:40:13.691Z,22.14
2017-10-28T00:41:22.664Z,22.21
2017-10-28T00:42:31.351Z,22.18
2017-10-28T00:43:40.361Z,22.2
2017-10-28T00:44:49.687Z,22.15
2017-10-28T00:45:58.679Z,22.22
2017-10-28T00:47:08.063Z,22.17
2017-10-28T00:48:17.076Z,22.2
2017-10-28T00:49:26.402Z,22.18
2017-10-28T00:50:35.081Z,22.2
2017-10-28T00:51:44.098Z,22.18
2017-10-28T00:52:53.098Z,22.15
2017-10-28T00:54:02.210Z,22.2
2017-10-28T00:55:11.525Z,22.2
2017-10-28T00:56:21.505Z,22.22
2017-10-28T00:57:30.829Z,22.24
2017-10-28T00:58:39.805Z,22.2
2017-10-28T00:59:48.489Z,22.22
2017-10-28T01:00:57.482Z,22.2
2017-10-28T01:02:06.510Z,22.22
2017-10-28T01:03:15.821Z,22.14
2017-10-28T01:04:25.152Z,22.24
2017-10-28T01:05:34.493Z,22.25
2017-10-28T01:06:43.468Z,22.24
2017-10-28T01:07:52.473Z,22.21
2017-10-28T01:09:01.485Z,22.2
2017-10-28T01:10:10.796Z,22.18
2017-10-28T01:11:19.783Z,22.2
2017-10-28T01:12:28.442Z,22.21
2017-10-28T01:13:37.419Z,22.2
2017-10-28T01:14:46.384Z,22.21
2017-10-28T01:15:55.364Z,22.22
2017-10-28T01:17:04.368Z,22.15
2017-10-28T01:18:13.703Z,22.21
2017-10-28T01:19:23.010Z,22.25
2017-10-28T01:20:32.313Z,22.18
2017-10-28T01:21:42.268Z,22.17
2017-10-28T01:22:50.921Z,22.18
2017-10-28T01:24:00.224Z,22.22
2017-10-28T01:25:09.527Z,22.18
2017-10-28T01:26:18.530Z,22.14
2017-10-28T01:27:27.512Z,22.21
2017-10-28T01:28:36.212Z,22.15
2017-10-28T01:29:45.195Z,22.21
2017-10-28T01:30:53.873Z,22.17
2017-10-28T01:32:02.847Z,22.2
2017-10-28T01:33:11.502Z,22.14
2017-10-28T01:34:20.163Z,22.18
2017-10-28T01:35:29.178Z,22.15
2017-10-28T01:36:38.149Z,22.18
2017-10-28T01:37:47.469Z,22.21
2017-10-28T01:38:56.468Z,22.17
2017-10-28T01:40:06.205Z,22.18
2017-10-28T01:41:15.577Z,22.22
2017-10-28T01:42:24.559Z,22.18
2017-10-28T01:43:33.540Z,22.25
2017-10-28T01:44:42.194Z,22.14
2017-10-28T01:45:50.858Z,22.22
2017-10-28T01:47:00.486Z,22.24
2017-10-28T01:48:09.788Z,22.2
2017-10-28T01:49:18.493Z,22.14
2017-10-28T01:50:27.808Z,22.21
2017-10-28T01:51:37.122Z,22.15
2017-10-28T01:52:45.786Z,22.17
2017-10-28T01:53:54.771Z,22.21
2017-10-28T01:55:04.422Z,22.24
2017-10-28T01:56:13.411Z,22.1
2017-10-28T01:57:23.246Z,22.14
2017-10-28T01:58:32.684Z,22.12
2017-10-28T01:59:42.007Z,22.14
2017-10-28T02:00:51.006Z,22.17
2017-10-28T02:02:00.000Z,22.17
2017-10-28T02:03:08.666Z,22.21
2017-10-28T02:04:17.641Z,22.24
2017-10-28T02:05:27.007Z,22.21
2017-10-28T02:06:35.965Z,22.2
2017-10-28T02:07:45.274Z,22.17
2017-10-28T02:08:54.575Z,22.12
2017-10-28T02:10:03.546Z,22.17
2017-10-28T02:11:12.212Z,22.14
2017-10-28T02:12:21.526Z,22.14
2017-10-28T02:13:30.198Z,22.09
2017-10-28T02:14:39.604Z,22.25
2017-10-28T02:15:49.228Z,22.1
2017-10-28T02:16:58.552Z,22.14
2017-10-28T02:18:08.192Z,22.12
2017-10-28T02:19:17.503Z,22.2
2017-10-28T02:20:26.916Z,22.14
2017-10-28T02:21:35.564Z,22.14
2017-10-28T02:22:44.557Z,22.03
2017-10-28T02:23:53.204Z,22.14
2017-10-28T02:25:01.887Z,22.06
2017-10-28T02:26:10.523Z,22.15
2017-10-28T02:27:19.174Z,22.18
2017-10-28T02:28:28.160Z,22.14
2017-10-28T02:29:36.899Z,22.18
2017-10-28T02:30:45.865Z,22.18
2017-10-28T02:31:54.844Z,22.17
2017-10-28T02:33:04.158Z,22.17
2017-10-28T02:34:13.823Z,22.18
2017-10-28T02:35:23.226Z,22.14
2017-10-28T02:36:31.888Z,22.14
2017-10-28T02:37:40.879Z,22.1
2017-10-28T02:38:49.570Z,22.03
2017-10-28T02:39:58.588Z,22.07
2017-10-28T02:41:07.278Z,22.03
2017-10-28T02:42:15.943Z,22.03
2017-10-28T02:43:24.981Z,22.18
2017-10-28T02:44:34.297Z,22.14
2017-10-28T02:45:43.286Z,22.17
2017-10-28T02:46:51.978Z,22.05
2017-10-28T02:48:00.993Z,22.09
2017-10-28T02:49:09.660Z,22.14
2017-10-28T02:50:18.990Z,22.17
2017-10-28T02:51:27.970Z,22.15
2017-10-28T02:52:37.278Z,22.15
2017-10-28T02:53:46.267Z,22.2
2017-10-28T02:54:55.255Z,22.15
2017-10-28T02:56:04.245Z,22.02
2017-10-28T02:57:13.589Z,22.05
2017-10-28T02:58:22.894Z,22.07
2017-10-28T02:59:32.529Z,22.02
2017-10-28T03:00:41.536Z,22.17
2017-10-28T03:01:50.849Z,22.03
2017-10-28T03:02:59.508Z,22.06
2017-10-28T03:04:08.494Z,22.09
2017-10-28T03:05:18.132Z,22.09
2017-10-28T03:06:27.860Z,22.06
2017-10-28T03:07:36.502Z,22.07
2017-10-28T03:08:45.480Z,22.05
2017-10-28T03:09:54.489Z,22
2017-10-28T03:11:03.810Z,22.15
2017-10-28T03:12:12.804Z,22.12
2017-10-28T03:13:21.464Z,22.05
2017-10-28T03:14:30.786Z,22.06
2017-10-28T03:15:40.421Z,22.05
2017-10-28T03:16:49.399Z,22.07
2017-10-28T03:17:58.810Z,22.12
2017-10-28T03:19:07.794Z,22.03
2017-10-28T03:20:17.437Z,22.06
2017-10-28T03:21:26.092Z,22.02
2017-10-28T03:22:34.760Z,22.07
2017-10-28T03:23:43.776Z,22.1
2017-10-28T03:24:52.769Z,22.09
2017-10-28T03:26:02.753Z,22.06
2017-10-28T03:27:11.754Z,22.07
2017-10-28T03:28:20.739Z,22.17
2017-10-28T03:29:29.718Z,22.02
2017-10-28T03:30:38.685Z,22.05
2017-10-28T03:31:47.342Z,22.07
2017-10-28T03:32:56.646Z,22.12
2017-10-28T03:34:05.302Z,22.12
2017-10-28T03:35:14.739Z,22.03
2017-10-28T03:36:23.719Z,22.03
2017-10-28T03:37:32.696Z,22.09
2017-10-28T03:38:41.697Z,21.99
2017-10-28T03:39:51.022Z,22.12
2017-10-28T03:41:00.031Z,22.09
2017-10-28T03:42:09.039Z,22.05
2017-10-28T03:43:18.024Z,22.02
2017-10-28T03:44:27.332Z,22.1
2017-10-28T03:45:35.988Z,22.09
2017-10-28T03:46:44.652Z,22.12
2017-10-28T03:47:53.665Z,22.05
2017-10-28T03:49:02.987Z,22.14
2017-10-28T03:50:11.623Z,22.05
2017-10-28T03:51:20.607Z,21.94
2017-10-28T03:52:29.954Z,22.05
2017-10-28T03:53:39.275Z,22.06
2017-10-28T03:54:48.255Z,22.07
2017-10-28T03:55:56.917Z,22.03
2017-10-28T03:57:05.557Z,22.07
2017-10-28T03:58:14.548Z,22.06
2017-10-28T03:59:23.526Z,21.98
2017-10-28T04:00:33.197Z,22.02
2017-10-28T04:01:42.502Z,21.96
2017-10-28T04:02:51.483Z,22.06
2017-10-28T04:04:00.235Z,22.03
2017-10-28T04:05:09.238Z,22.03
2017-10-28T04:06:19.211Z,21.99
2017-10-28T04:07:28.518Z,21.96
2017-10-28T04:08:37.200Z,21.98
2017-10-28T04:09:46.621Z,22.02
2017-10-28T04:10:55.606Z,21.98
2017-10-28T04:12:05.245Z,22.02
2017-10-28T04:13:14.878Z,22
2017-10-28T04:14:24.212Z,22.05
2017-10-28T04:15:32.964Z,21.98
2017-10-28T04:16:41.972Z,21.99
2017-10-28T04:17:51.272Z,22
2017-10-28T04:18:59.940Z,22.09
2017-10-28T04:20:09.261Z,21.99
2017-10-28T04:21:18.240Z,22.05
2017-10-28T04:22:27.556Z,22
2017-10-28T04:23:36.551Z,21.98
2017-10-28T04:24:45.852Z,21.99
2017-10-28T04:25:54.844Z,21.98
2017-10-28T04:27:04.161Z,21.98
2017-10-28T04:28:13.148Z,21.98
2017-10-28T04:29:22.127Z,21.98
2017-10-28T04:30:30.789Z,22.03
2017-10-28T04:31:39.785Z,22
2017-10-28T04:32:49.184Z,21.94
2017-10-28T04:33:58.177Z,21.94
2017-10-28T04:35:07.166Z,21.99
2017-10-28T04:36:16.491Z,21.98
2017-10-28T04:37:25.467Z,21.96
2017-10-28T04:38:34.451Z,21.96
2017-10-28T04:39:43.757Z,21.98
2017-10-28T04:40:52.747Z,21.96
2017-10-28T04:42:02.049Z,21.96
2017-10-28T04:43:11.387Z,21.98
2017-10-28T04:44:20.367Z,21.96
2017-10-28T04:45:29.029Z,21.94
2017-10-28T04:46:37.683Z,22.02
2017-10-28T04:47:46.698Z,21.98
2017-10-28T04:48:55.362Z,21.99
2017-10-28T04:50:04.808Z,21.94
2017-10-28T04:51:14.165Z,21.98
2017-10-28T04:52:23.158Z,22
2017-10-28T04:53:32.179Z,21.94
2017-10-28T04:54:41.180Z,21.99
2017-10-28T04:55:50.492Z,22
2017-10-28T04:57:00.132Z,22.03
2017-10-28T04:58:09.460Z,22
2017-10-28T04:59:18.782Z,21.94
2017-10-28T05:00:28.101Z,21.96
2017-10-28T05:01:37.422Z,22
2017-10-28T05:02:46.400Z,22.02
2017-10-28T05:03:55.380Z,21.91
2017-10-28T05:05:05.016Z,21.96
2017-10-28T05:06:13.663Z,21.99
2017-10-28T05:07:22.701Z,22.02
2017-10-28T05:08:32.016Z,21.92
2017-10-28T05:09:40.997Z,22
2017-10-28T05:10:50.334Z,21.99
2017-10-28T05:11:59.313Z,21.99
2017-10-28T05:13:08.735Z,21.96
2017-10-28T05:14:17.408Z,22.06
2017-10-28T05:15:26.765Z,21.98
2017-10-28T05:16:35.442Z,21.9
2017-10-28T05:17:44.107Z,21.99
2017-10-28T05:18:53.741Z,22
2017-10-28T05:20:03.048Z,22
2017-10-28T05:21:12.417Z,22
2017-10-28T05:22:21.402Z,21.83
2017-10-28T05:23:31.059Z,21.92
2017-10-28T05:24:39.715Z,21.84
2017-10-28T05:25:49.038Z,22
2017-10-28T05:26:58.030Z,21.92
2017-10-28T05:28:07.036Z,21.94
2017-10-28T05:29:17.134Z,21.83
2017-10-28T05:30:26.560Z,21.92
2017-10-28T05:31:35.221Z,21.94
2017-10-28T05:32:44.545Z,21.94
2017-10-28T05:33:53.857Z,22
2017-10-28T05:35:03.168Z,21.91
2017-10-28T05:36:12.151Z,21.99
2017-10-28T05:37:21.474Z,21.94
2017-10-28T05:38:30.146Z,22
2017-10-28T05:39:39.142Z,22
2017-10-28T05:40:49.639Z,21.99
2017-10-28T05:41:59.031Z,21.98
2017-10-28T05:43:07.709Z,21.9
2017-10-28T05:44:16.719Z,21.9
2017-10-28T05:45:26.074Z,22
2017-10-28T05:46:34.783Z,21.86
2017-10-28T05:47:43.760Z,21.99
2017-10-28T05:48:52.781Z,21.94
2017-10-28T05:50:02.169Z,21.92
2017-10-28T05:51:11.165Z,21.99
2017-10-28T05:52:20.158Z,21.88
2017-10-28T05:53:29.461Z,21.91
2017-10-28T05:54:38.762Z,21.9
2017-10-28T05:55:47.746Z,21.99
2017-10-28T05:56:57.069Z,21.88
2017-10-28T05:58:06.703Z,21.84
2017-10-28T05:59:15.797Z,21.88
2017-10-28T06:00:25.775Z,21.9
2017-10-28T06:01:34.435Z,21.92
2017-10-28T06:02:43.109Z,21.88
2017-10-28T06:03:52.100Z,21.92
2017-10-28T06:05:00.765Z,21.91
2017-10-28T06:06:09.741Z,21.8
2017-10-28T06:07:18.608Z,21.96
2017-10-28T06:08:27.467Z,21.88
2017-10-28T06:09:36.276Z,21.86
2017-10-28T06:10:45.974Z,21.9
2017-10-28T06:11:55.431Z,21.91
2017-10-28T06:13:05.346Z,21.96
2017-10-28T06:14:14.130Z,21.96
2017-10-28T06:15:23.281Z,21.92
2017-10-28T06:16:32.582Z,21.9
2017-10-28T06:17:41.916Z,21.91
2017-10-28T06:18:51.231Z,21.92
2017-10-28T06:20:00.199Z,21.92
2017-10-28T06:21:09.199Z,21.96
2017-10-28T06:22:17.953Z,21.94
2017-10-28T06:23:27.605Z,21.91
2017-10-28T06:24:37.248Z,21.94
2017-10-28T06:25:45.954Z,21.94
2017-10-28T06:26:55.278Z,21.91
2017-10-28T06:28:04.684Z,21.88
2017-10-28T06:29:13.982Z,21.91
2017-10-28T06:30:23.690Z,21.91
2017-10-28T06:31:32.661Z,21.9
2017-10-28T06:32:42.017Z,21.96
2017-10-28T06:33:51.156Z,21.9
2017-10-28T06:35:00.428Z,22
2017-10-28T06:36:10.338Z,21.91
2017-10-28T06:37:19.661Z,21.9
2017-10-28T06:38:28.741Z,21.99
2017-10-28T06:39:38.076Z,21.96
2017-10-28T06:40:46.847Z,22
2017-10-28T06:41:56.811Z,21.98
2017-10-28T06:43:05.642Z,21.99
2017-10-28T06:44:14.318Z,21.94
2017-10-28T06:45:23.736Z,21.96
2017-10-28T06:46:33.069Z,21.92
2017-10-28T06:47:42.956Z,21.91
2017-10-28T06:48:52.965Z,21.96
2017-10-28T06:50:02.997Z,21.88
2017-10-28T06:51:12.187Z,22
2017-10-28T06:52:21.109Z,21.92
2017-10-28T06:53:30.154Z,22
2017-10-28T06:54:39.476Z,21.91
2017-10-28T06:55:48.489Z,21.94
2017-10-28T06:56:57.486Z,21.99
2017-10-28T06:58:06.476Z,21.88
2017-10-28T06:59:15.794Z,21.98
2017-10-28T07:00:24.467Z,21.94
2017-10-28T07:01:33.493Z,22
2017-10-28T07:02:43.167Z,22
2017-10-28T07:03:52.205Z,22
2017-10-28T07:05:01.570Z,21.99
2017-10-28T07:06:12.385Z,21.96
2017-10-28T07:07:22.087Z,21.86
2017-10-28T07:08:30.752Z,21.88
2017-10-28T07:09:39.450Z,21.91
2017-10-28T07:10:49.131Z,21.86
2017-10-28T07:11:58.479Z,21.98
2017-10-28T07:13:08.011Z,21.99
2017-10-28T07:14:16.731Z,21.92
2017-10-28T07:15:25.764Z,21.94
2017-10-28T07:16:34.495Z,21.91
2017-10-28T07:17:43.225Z,22
2017-10-28T07:18:52.574Z,21.98
2017-10-28T07:20:01.636Z,21.83
2017-10-28T07:21:10.315Z,21.86
2017-10-28T07:22:19.659Z,21.96
2017-10-28T07:23:28.380Z,21.98
2017-10-28T07:24:37.722Z,22
2017-10-28T07:25:46.396Z,22
2017-10-28T07:26:55.748Z,21.91
2017-10-28T07:28:04.737Z,21.94
2017-10-28T07:29:14.049Z,21.99
2017-10-28T07:30:22.712Z,21.9
2017-10-28T07:31:31.384Z,21.96
2017-10-28T07:32:40.056Z,22
2017-10-28T07:33:48.765Z,21.99
2017-10-28T07:34:57.503Z,21.98
2017-10-28T07:36:06.825Z,21.91
2017-10-28T07:37:15.521Z,21.94
2017-10-28T07:38:24.537Z,21.94
2017-10-28T07:39:33.885Z,22.02
2017-10-28T07:40:42.729Z,21.98
2017-10-28T07:41:52.403Z,21.96
2017-10-28T07:43:01.062Z,21.96
2017-10-28T07:44:10.075Z,22.1
2017-10-28T07:45:19.759Z,22.02
2017-10-28T07:46:28.752Z,22.09
2017-10-28T07:47:37.451Z,22.1
2017-10-28T07:48:46.750Z,22.03
2017-10-28T07:49:55.745Z,22.09
2017-10-28T07:51:04.736Z,22.09
2017-10-28T07:52:14.054Z,22.14
2017-10-28T07:53:22.712Z,22.14
2017-10-28T07:54:31.691Z,22.06
2017-10-28T07:55:40.697Z,22.07
2017-10-28T07:56:49.409Z,22.05
2017-10-28T07:57:58.389Z,22.05
2017-10-28T07:59:07.711Z,22.05
2017-10-28T08:00:16.759Z,22.07
2017-10-28T08:01:26.150Z,22.09
2017-10-28T08:02:34.858Z,22.07
2017-10-28T08:03:43.892Z,22.02
2017-10-28T08:04:53.885Z,22.06
2017-10-28T08:06:03.204Z,22.06
2017-10-28T08:07:11.884Z,22.03
2017-10-28T08:08:21.200Z,22.03
2017-10-28T08:09:30.518Z,22.12
2017-10-28T08:10:39.572Z,22.03
2017-10-28T08:11:48.575Z,22.02
2017-10-28T08:12:58.304Z,22.09
2017-10-28T08:14:07.614Z,22.03
2017-10-28T08:15:16.702Z,22.17
2017-10-28T08:16:25.359Z,22.2
2017-10-28T08:17:34.067Z,22.22
2017-10-28T08:18:43.444Z,22.14
2017-10-28T08:19:52.877Z,22.24
2017-10-28T08:21:02.587Z,22.21
2017-10-28T08:22:11.544Z,22.25
2017-10-28T08:23:21.252Z,22.22
2017-10-28T08:24:30.272Z,22.22
2017-10-28T08:25:39.012Z,22.22
2017-10-28T08:26:48.004Z,22.22
2017-10-28T08:27:57.730Z,22.21
2017-10-28T08:29:07.375Z,22.18
2017-10-28T08:30:17.048Z,22.24
2017-10-28T08:31:26.056Z,22.17
2017-10-28T08:32:35.198Z,22.25
2017-10-28T08:33:44.553Z,22.2
2017-10-28T08:34:53.228Z,22.21
2017-10-28T08:36:02.540Z,22.28
2017-10-28T08:37:12.364Z,22.3
2017-10-28T08:38:21.678Z,22.28
2017-10-28T08:39:30.685Z,22.27
2017-10-28T08:40:39.991Z,22.31
2017-10-28T08:41:49.296Z,22.27
2017-10-28T08:42:58.296Z,22.31
2017-10-28T08:44:07.642Z,22.27
2017-10-28T08:45:17.388Z,22.33
2017-10-28T08:46:26.354Z,22.39
2017-10-28T08:47:36.060Z,22.37
2017-10-28T08:48:44.772Z,22.39
2017-10-28T08:49:54.425Z,22.42
2017-10-28T08:51:03.400Z,22.4
2017-10-28T08:52:12.731Z,22.47
2017-10-28T08:53:22.050Z,22.46
2017-10-28T08:54:31.110Z,22.39
2017-10-28T08:55:40.434Z,22.37
2017-10-28T08:56:49.098Z,22.43
2017-10-28T08:57:58.136Z,22.37
2017-10-28T08:59:06.799Z,22.47
2017-10-28T09:00:15.787Z,22.37
2017-10-28T09:01:25.768Z,22.47
2017-10-28T09:02:35.122Z,22.45
2017-10-28T09:03:43.793Z,22.49
2017-10-28T09:04:53.170Z,22.46
2017-10-28T09:06:03.154Z,22.43
2017-10-28T09:07:12.898Z,22.47
2017-10-28T09:08:23.324Z,22.37
2017-10-28T09:09:32.364Z,22.42
2017-10-28T09:10:41.812Z,22.37
2017-10-28T09:11:51.049Z,22.37
2017-10-28T09:13:00.477Z,22.45
2017-10-28T09:14:09.493Z,22.47
2017-10-28T09:15:18.134Z,22.43
2017-10-28T09:16:27.470Z,22.46
2017-10-28T09:17:36.488Z,22.4
2017-10-28T09:18:45.484Z,22.46
2017-10-28T09:19:54.492Z,22.45
2017-10-28T09:21:03.488Z,22.45
2017-10-28T09:22:12.801Z,22.43
2017-10-28T09:23:22.474Z,22.47
2017-10-28T09:24:31.465Z,22.46
2017-10-28T09:25:40.453Z,22.45
2017-10-28T09:26:49.793Z,22.46
2017-10-28T09:27:58.443Z,22.37
2017-10-28T09:29:08.080Z,22.46
2017-10-28T09:30:17.400Z,22.42
2017-10-28T09:31:26.048Z,22.51
2017-10-28T09:32:35.048Z,22.47
2017-10-28T09:33:45.071Z,22.39
2017-10-28T09:34:53.731Z,22.37
2017-10-28T09:36:02.448Z,22.39
2017-10-28T09:37:11.760Z,22.46
2017-10-28T09:38:20.783Z,22.43
2017-10-28T09:39:29.445Z,22.45
2017-10-28T09:40:38.105Z,22.45
2017-10-28T09:41:47.087Z,22.46
2017-10-28T09:42:56.395Z,22.43
2017-10-28T09:44:05.053Z,22.49
2017-10-28T09:45:14.733Z,22.37
2017-10-28T09:46:23.423Z,22.45
2017-10-28T09:47:32.775Z,22.45
2017-10-28T09:48:41.870Z,22.43
2017-10-28T09:49:51.136Z,22.36
2017-10-28T09:51:00.123Z,22.46
2017-10-28T09:52:09.453Z,22.43
2017-10-28T09:53:18.781Z,22.46
2017-10-28T09:54:27.625Z,22.46
2017-10-28T09:55:36.977Z,22.42
2017-10-28T09:56:45.965Z,22.42
2017-10-28T09:57:54.733Z,22.45
2017-10-28T09:59:04.035Z,22.43
2017-10-28T10:00:13.357Z,22.47
2017-10-28T10:01:23.028Z,22.4
2017-10-28T10:02:32.055Z,22.36
2017-10-28T10:03:41.053Z,22.43
2017-10-28T10:04:50.046Z,22.45
2017-10-28T10:05:59.392Z,22.36
2017-10-28T10:07:08.942Z,22.37
2017-10-28T10:08:19.045Z,22.43
2017-10-28T10:09:27.990Z,22.4
2017-10-28T10:10:37.672Z,22.4
2017-10-28T10:11:47.269Z,22.39
2017-10-28T10:12:56.045Z,22.37
2017-10-28T10:14:06.287Z,22.37
2017-10-28T10:15:15.810Z,22.36
2017-10-28T10:16:25.409Z,22.37
2017-10-28T10:17:35.323Z,22.36
2017-10-28T10:18:44.470Z,22.36
2017-10-28T10:19:54.232Z,22.39
2017-10-28T10:21:03.330Z,22.31
2017-10-28T10:22:12.251Z,22.31
2017-10-28T10:23:21.435Z,22.36
2017-10-28T10:24:30.899Z,22.36
2017-10-28T10:25:41.093Z,22.37
2017-10-28T10:26:50.640Z,22.3
2017-10-28T10:27:59.768Z,22.33
2017-10-28T10:29:10.097Z,22.36
2017-10-28T10:30:19.952Z,22.36
2017-10-28T10:31:29.183Z,22.31
2017-10-28T10:32:38.016Z,22.35
2017-10-28T10:33:47.858Z,22.35
2017-10-28T10:34:57.309Z,22.31
2017-10-28T10:36:06.414Z,22.33
2017-10-28T10:37:15.611Z,22.37
2017-10-28T10:38:24.680Z,22.36
2017-10-28T10:39:33.587Z,22.37
2017-10-28T10:40:42.890Z,22.35
2017-10-28T10:41:52.754Z,22.36
2017-10-28T10:43:04.117Z,22.31
2017-10-28T10:44:13.323Z,22.35
2017-10-28T10:45:22.219Z,22.37
2017-10-28T10:46:31.724Z,22.28
2017-10-28T10:47:41.233Z,22.37
2017-10-28T10:48:50.395Z,22.27
2017-10-28T10:49:59.352Z,22.28
2017-10-28T10:51:08.517Z,22.36
2017-10-28T10:52:17.534Z,22.31
2017-10-28T10:53:26.920Z,22.33
2017-10-28T10:54:36.371Z,22.27
2017-10-28T10:55:45.675Z,22.33
2017-10-28T10:56:55.221Z,22.35
2017-10-28T10:58:04.736Z,22.25
2017-10-28T10:59:13.895Z,22.33
2017-10-28T11:00:23.798Z,22.28
2017-10-28T11:01:32.965Z,22.31
2017-10-28T11:02:42.552Z,22.25
2017-10-28T11:03:53.040Z,22.3
2017-10-28T11:05:02.069Z,22.35
2017-10-28T11:06:14.094Z,22.31
2017-10-28T11:07:23.737Z,22.33
2017-10-28T11:08:32.468Z,22.31
2017-10-28T11:09:41.658Z,22.31
2017-10-28T11:10:51.328Z,22.31
2017-10-28T11:12:00.193Z,22.3
2017-10-28T11:13:09.209Z,22.35
2017-10-28T11:14:18.854Z,22.4
2017-10-28T11:15:28.786Z,22.33
2017-10-28T11:16:38.085Z,22.33
2017-10-28T11:17:47.099Z,22.35
2017-10-28T11:18:56.028Z,22.36
2017-10-28T11:20:04.758Z,22.36
2017-10-28T11:21:14.284Z,22.36
2017-10-28T11:22:23.850Z,22.39
2017-10-28T11:23:32.940Z,22.36
2017-10-28T11:24:42.168Z,22.36
2017-10-28T11:25:50.971Z,22.37
2017-10-28T11:27:00.187Z,22.37
2017-10-28T11:28:10.270Z,22.42
2017-10-28T11:29:18.973Z,22.36
2017-10-28T11:30:27.819Z,22.36
2017-10-28T11:31:36.900Z,22.36
2017-10-28T11:32:46.306Z,22.35
2017-10-28T11:33:55.442Z,22.39
2017-10-28T11:35:04.572Z,22.4
2017-10-28T11:36:14.212Z,22.37
2017-10-28T11:37:24.073Z,22.4
2017-10-28T11:38:33.146Z,22.35
2017-10-28T11:39:41.971Z,22.37
2017-10-28T11:40:51.514Z,22.39
2017-10-28T11:42:00.678Z,22.36
2017-10-28T11:43:09.628Z,22.37
2017-10-28T11:44:18.965Z,22.42
2017-10-28T11:45:28.121Z,22.31
2017-10-28T11:46:37.390Z,22.37
2017-10-28T11:47:46.990Z,22.36
2017-10-28T11:48:55.823Z,22.39
2017-10-28T11:50:04.902Z,22.37
2017-10-28T11:51:14.225Z,22.33
2017-10-28T11:52:23.527Z,22.36
2017-10-28T11:53:32.806Z,22.35
2017-10-28T11:54:41.766Z,22.39
2017-10-28T11:55:51.321Z,22.4
2017-10-28T11:57:00.563Z,22.4
2017-10-28T11:58:10.566Z,22.35
2017-10-28T11:59:20.798Z,22.35
2017-10-28T12:00:30.997Z,22.39
2017-10-28T12:01:40.991Z,22.37
2017-10-28T12:02:50.251Z,22.39
2017-10-28T12:03:59.884Z,22.39
2017-10-28T12:05:09.137Z,22.39
2017-10-28T12:06:18.316Z,22.4
2017-10-28T12:07:27.517Z,22.39
2017-10-28T12:08:37.290Z,22.43
2017-10-28T12:09:46.382Z,22.46
2017-10-28T12:10:55.873Z,22.4
2017-10-28T12:12:05.168Z,22.36
2017-10-28T12:13:14.427Z,22.37
2017-10-28T12:14:25.429Z,22.45
2017-10-28T12:15:35.077Z,22.42
2017-10-28T12:16:44.368Z,22.37
2017-10-28T12:17:53.337Z,22.45
2017-10-28T12:19:02.575Z,22.46
2017-10-28T12:20:12.040Z,22.39
2017-10-28T12:21:21.399Z,22.36
2017-10-28T12:22:30.669Z,22.37
2017-10-28T12:23:40.975Z,22.33
2017-10-28T12:24:51.218Z,22.37
2017-10-28T12:26:00.822Z,22.31
2017-10-28T12:27:10.607Z,22.31
2017-10-28T12:28:20.279Z,22.36
2017-10-28T12:29:30.380Z,22.35
2017-10-28T12:30:40.516Z,22.35
2017-10-28T12:31:49.706Z,22.31
2017-10-28T12:32:59.404Z,22.31
2017-10-28T12:34:08.938Z,22.33
2017-10-28T12:35:18.245Z,22.4
2017-10-28T12:36:27.642Z,22.36
2017-10-28T12:37:37.395Z,22.31
2017-10-28T12:38:46.807Z,22.35
2017-10-28T12:39:56.557Z,22.37
2017-10-28T12:41:06.220Z,22.33
2017-10-28T12:42:15.486Z,22.3
2017-10-28T12:43:25.332Z,22.31
2017-10-28T12:44:37.425Z,22.39
2017-10-28T12:45:46.953Z,22.35
2017-10-28T12:46:57.299Z,22.37
2017-10-28T12:48:08.105Z,22.37
2017-10-28T12:49:17.398Z,22.39
2017-10-28T12:50:26.389Z,22.33
2017-10-28T12:51:35.935Z,22.37
2017-10-28T12:52:45.054Z,22.39
2017-10-28T12:53:54.574Z,22.37
2017-10-28T12:55:04.358Z,22.42
2017-10-28T12:56:14.324Z,22.37
2017-10-28T12:57:23.410Z,22.36
2017-10-28T12:58:32.786Z,22.36
2017-10-28T12:59:41.573Z,22.35
2017-10-28T13:00:50.584Z,22.28
2017-10-28T13:01:59.625Z,22.33
2017-10-28T13:03:08.847Z,22.39
2017-10-28T13:04:17.749Z,22.36
2017-10-28T13:05:26.944Z,22.35
2017-10-28T13:06:35.982Z,22.37
2017-10-28T13:07:44.979Z,22.36
2017-10-28T13:08:53.977Z,22.35
2017-10-28T13:10:03.135Z,22.42
2017-10-28T13:11:13.300Z,22.37
2017-10-28T13:12:22.117Z,22.42
2017-10-28T13:13:31.121Z,22.39
2017-10-28T13:14:40.232Z,22.4
2017-10-28T13:15:49.116Z,22.37
2017-10-28T13:16:58.886Z,22.35
2017-10-28T13:18:08.059Z,22.42
2017-10-28T13:19:17.476Z,22.39
2017-10-28T13:20:27.357Z,22.36
2017-10-28T13:21:36.390Z,22.39
2017-10-28T13:22:45.068Z,22.37
2017-10-28T13:23:54.576Z,22.4
2017-10-28T13:25:04.081Z,22.36
2017-10-28T13:26:13.455Z,22.36
2017-10-28T13:27:22.488Z,22.36
2017-10-28T13:28:31.870Z,22.37
2017-10-28T13:29:41.224Z,22.43
2017-10-28T13:30:49.893Z,22.4
2017-10-28T13:31:58.578Z,22.37
2017-10-28T13:33:07.577Z,22.42
2017-10-28T13:34:16.577Z,22.39
2017-10-28T13:35:25.971Z,22.47
2017-10-28T13:36:34.706Z,22.4
2017-10-28T13:37:43.476Z,22.46
2017-10-28T13:38:52.194Z,22.42
2017-10-28T13:40:01.237Z,22.43
2017-10-28T13:41:10.317Z,22.46
2017-10-28T13:42:19.374Z,22.4
2017-10-28T13:43:28.938Z,22.37
2017-10-28T13:44:37.988Z,22.4
2017-10-28T13:45:47.188Z,22.4
2017-10-28T13:46:56.672Z,22.4
2017-10-28T13:48:05.834Z,22.39
2017-10-28T13:49:15.645Z,22.4
2017-10-28T13:50:24.578Z,22.42
2017-10-28T13:51:33.644Z,22.39
2017-10-28T13:52:42.752Z,22.46
2017-10-28T13:53:51.892Z,22.39
2017-10-28T13:55:00.891Z,22.43
2017-10-28T13:56:09.561Z,22.33
2017-10-28T13:57:18.598Z,22.35
2017-10-28T13:58:27.289Z,22.31
2017-10-28T13:59:36.298Z,22.39
2017-10-28T14:00:45.960Z,22.27
2017-10-28T14:01:54.742Z,22.37
2017-10-28T14:03:04.114Z,22.28
2017-10-28T14:04:12.785Z,22.25
2017-10-28T14:05:22.132Z,22.31
2017-10-28T14:06:31.496Z,22.24
2017-10-28T14:07:40.154Z,22.33
2017-10-28T14:08:49.886Z,22.28
2017-10-28T14:09:58.637Z,22.3
2017-10-28T14:11:07.969Z,22.24
2017-10-28T14:12:16.973Z,22.33
2017-10-28T14:13:25.675Z,22.31
2017-10-28T14:14:35.749Z,22.28
2017-10-28T14:15:44.785Z,22.28
2017-10-28T14:16:53.435Z,22.27
2017-10-28T14:18:02.810Z,22.24
2017-10-28T14:19:11.938Z,22.2
2017-10-28T14:20:21.263Z,22.25
2017-10-28T14:21:30.652Z,22.17
2017-10-28T14:22:39.933Z,22.31
2017-10-28T14:23:48.600Z,22.17
2017-10-28T14:24:57.931Z,22.25
2017-10-28T14:26:06.631Z,22.27
2017-10-28T14:27:15.994Z,22.18
2017-10-28T14:28:25.332Z,22.18
2017-10-28T14:29:34.016Z,22.28
2017-10-28T14:30:43.352Z,22.21
2017-10-28T14:31:52.394Z,22.3
2017-10-28T14:33:01.426Z,22.27
2017-10-28T14:34:10.522Z,22.33
2017-10-28T14:35:19.487Z,22.24
2017-10-28T14:36:28.854Z,22.25
2017-10-28T14:37:37.876Z,22.27
2017-10-28T14:38:47.701Z,22.25
2017-10-28T14:39:57.122Z,22.33
2017-10-28T14:41:06.529Z,22.3
2017-10-28T14:42:15.501Z,22.3
2017-10-28T14:43:25.767Z,22.28
2017-10-28T14:44:35.641Z,22.22
2017-10-28T14:45:44.930Z,22.21
2017-10-28T14:46:54.708Z,22.25
2017-10-28T14:48:03.992Z,22.33
2017-10-28T14:49:13.620Z,22.27
2017-10-28T14:50:23.675Z,22.22
2017-10-28T14:51:32.762Z,22.31
2017-10-28T14:52:41.773Z,22.27
2017-10-28T14:53:50.519Z,22.25
2017-10-28T14:55:00.005Z,22.21
2017-10-28T14:56:09.079Z,22.24
2017-10-28T14:57:17.869Z,22.24